Station History

Weather Underground - logo

Station Historical Data
Daily Summary for October 13, 2017 Units:  English    Metric   Both
« Previous Day
Next Day »
Daily Weekly Monthly Yearly Custom
  High: Low: Average:
Temperature: 75.2 °F 43.6 °F 57.9 °F
Dew Point: 47.3 °F 38.8 °F 42.7 °F
Humidity: 87 % 28 % 61 %
Wind Speed: 3.5 mph 0.0 mph 0.4 mph
Wind Gust: 3.5 mph - -
Wind:- - SW
Pressure: 30.12 in 30.01 in -
Precipitation: 0.00 in    
Historical Graphs
 
 
Tabular Data for October 13, 2017
Time Temperature Dew Point Pressure Wind Wind Speed Wind Gust Humidity Rainfall Rate (Hourly)
00:01 50.6 °F 43.3 °F 30.05 in Calm     76 % 0.00 in
00:06 50.2 °F 43.6 °F 30.05 in Calm     78 % 0.00 in
00:11 50.0 °F 43.4 °F 30.05 in Calm     78 % 0.00 in
00:16 49.7 °F 43.1 °F 30.05 in Calm     78 % 0.00 in
00:21 49.3 °F 43.1 °F 30.05 in Calm     79 % 0.00 in
00:26 48.8 °F 42.6 °F 30.05 in Calm     79 % 0.00 in
00:31 48.1 °F 42.2 °F 30.05 in Calm     80 % 0.00 in
00:36 47.8 °F 42.3 °F 30.05 in Calm     81 % 0.00 in
00:41 47.7 °F 42.2 °F 30.05 in Calm     81 % 0.00 in
00:46 47.7 °F 42.2 °F 30.05 in Calm     81 % 0.00 in
00:51 47.7 °F 41.8 °F 30.05 in Calm     80 % 0.00 in
00:56 47.9 °F 42.0 °F 30.06 in Calm     80 % 0.00 in
01:01 48.1 °F 41.9 °F 30.05 in Calm     79 % 0.00 in
01:06 48.2 °F 42.0 °F 30.06 in Calm     79 % 0.00 in
01:11 48.3 °F 42.4 °F 30.06 in Calm     80 % 0.00 in
01:16 48.1 °F 42.2 °F 30.06 in Calm     80 % 0.00 in
01:22 47.7 °F 41.8 °F 30.06 in Calm     80 % 0.00 in
01:27 47.2 °F 41.3 °F 30.06 in Calm     80 % 0.00 in
01:32 46.8 °F 41.3 °F 30.06 in Calm     81 % 0.00 in
01:37 46.6 °F 41.1 °F 30.06 in Calm     81 % 0.00 in
01:42 46.5 °F 41.3 °F 30.06 in Calm     82 % 0.00 in
01:47 46.4 °F 41.2 °F 30.06 in Calm     82 % 0.00 in
01:52 46.3 °F 41.7 °F 30.06 in Calm     84 % 0.00 in
01:57 46.4 °F 41.8 °F 30.06 in Calm     84 % 0.00 in
02:02 46.5 °F 41.9 °F 30.06 in Calm     84 % 0.00 in
02:07 46.5 °F 41.9 °F 30.07 in Calm     84 % 0.00 in
02:12 46.4 °F 41.8 °F 30.07 in Calm     84 % 0.00 in
02:17 46.4 °F 41.8 °F 30.07 in Calm     84 % 0.00 in
02:22 46.5 °F 42.2 °F 30.07 in Calm     85 % 0.00 in
02:27 46.4 °F 41.8 °F 30.07 in Calm     84 % 0.00 in
02:32 46.2 °F 41.6 °F 30.07 in Calm     84 % 0.00 in
02:37 46.0 °F 41.4 °F 30.07 in Calm     84 % 0.00 in
02:42 45.9 °F 41.6 °F 30.07 in Calm     85 % 0.00 in
02:47 46.0 °F 41.7 °F 30.07 in Calm     85 % 0.00 in
02:52 46.1 °F 42.1 °F 30.07 in Calm     86 % 0.00 in
02:57 46.3 °F 42.0 °F 30.07 in Calm     85 % 0.00 in
03:02 46.4 °F 42.1 °F 30.07 in Calm     85 % 0.00 in
03:07 46.6 °F 42.3 °F 30.07 in Calm     85 % 0.00 in
03:12 46.5 °F 41.6 °F 30.07 in Calm     83 % 0.00 in
03:17 46.5 °F 41.6 °F 30.07 in Calm     83 % 0.00 in
03:22 46.5 °F 41.6 °F 30.07 in Calm     83 % 0.00 in
03:27 46.5 °F 41.3 °F 30.07 in Calm     82 % 0.00 in
03:32 46.4 °F 41.2 °F 30.06 in Calm     82 % 0.00 in
03:37 46.7 °F 41.2 °F 30.06 in Calm     81 % 0.00 in
03:42 46.8 °F 41.0 °F 30.06 in Calm     80 % 0.00 in
03:47 46.7 °F 41.2 °F 30.06 in Calm     81 % 0.00 in
03:52 46.8 °F 41.3 °F 30.06 in Calm     81 % 0.00 in
03:57 46.8 °F 41.3 °F 30.06 in Calm     81 % 0.00 in
04:02 46.6 °F 41.1 °F 30.06 in Calm     81 % 0.00 in
04:07 46.2 °F 41.0 °F 30.06 in Calm     82 % 0.00 in
04:12 46.3 °F 41.1 °F 30.06 in Calm     82 % 0.00 in
04:17 46.5 °F 41.0 °F 30.06 in Calm     81 % 0.00 in
04:22 46.7 °F 41.2 °F 30.06 in Calm     81 % 0.00 in
04:27 46.9 °F 40.7 °F 30.06 in Calm   0.1 mph 79 % 0.00 in
04:32 47.1 °F 40.6 °F 30.06 in Calm     78 % 0.00 in
04:37 47.2 °F 40.7 °F 30.06 in Calm     78 % 0.00 in
04:43 47.3 °F 40.5 °F 30.06 in Calm     77 % 0.00 in
04:48 47.0 °F 40.2 °F 30.07 in Calm     77 % 0.00 in
04:53 47.1 °F 39.9 °F 30.07 in Calm     76 % 0.00 in
04:58 46.7 °F 39.5 °F 30.07 in Calm     76 % 0.00 in
05:03 45.7 °F 38.9 °F 30.07 in Calm     77 % 0.00 in
05:08 45.0 °F 38.9 °F 30.07 in Calm     79 % 0.00 in
05:13 44.6 °F 39.1 °F 30.07 in Calm     81 % 0.00 in
05:18 44.5 °F 39.7 °F 30.07 in Calm     83 % 0.00 in
05:23 44.5 °F 40.6 °F 30.07 in Calm     86 % 0.00 in
05:28 44.1 °F 39.6 °F 30.07 in Calm     84 % 0.00 in
05:33 43.9 °F 39.4 °F 30.07 in Calm     84 % 0.00 in
05:38 43.7 °F 39.2 °F 30.07 in Calm     84 % 0.00 in
05:39 43.6 °F 39.1 °F 30.07 in Calm     84 % 0.00 in
05:44 43.6 °F 39.7 °F 30.07 in Calm     86 % 0.00 in
05:49 43.7 °F 40.1 °F 30.08 in Calm     87 % 0.00 in
05:54 43.7 °F 39.8 °F 30.08 in Calm     86 % 0.00 in
05:59 43.7 °F 40.1 °F 30.08 in Calm     87 % 0.00 in
06:04 43.9 °F 40.0 °F 30.08 in Calm     86 % 0.00 in
06:09 44.0 °F 40.1 °F 30.08 in Calm     86 % 0.00 in
06:14 44.0 °F 39.8 °F 30.08 in Calm     85 % 0.00 in
06:19 44.0 °F 39.8 °F 30.08 in Calm     85 % 0.00 in
06:24 44.0 °F 39.8 °F 30.09 in Calm     85 % 0.00 in
06:29 44.0 °F 40.1 °F 30.09 in Calm     86 % 0.00 in
06:34 44.1 °F 40.2 °F 30.09 in Calm     86 % 0.00 in
06:39 44.0 °F 40.1 °F 30.08 in Calm     86 % 0.00 in
06:44 43.9 °F 40.0 °F 30.09 in Calm     86 % 0.00 in
06:49 44.0 °F 40.4 °F 30.09 in Calm     87 % 0.00 in
06:54 44.1 °F 40.2 °F 30.09 in Calm     86 % 0.00 in
06:59 44.0 °F 39.8 °F 30.09 in Calm     85 % 0.00 in
07:04 44.4 °F 39.6 °F 30.09 in Calm     83 % 0.00 in
07:09 44.5 °F 39.7 °F 30.09 in Calm     83 % 0.00 in
07:14 44.7 °F 39.9 °F 30.09 in Calm     83 % 0.00 in
07:19 44.7 °F 39.9 °F 30.09 in Calm     83 % 0.00 in
07:24 44.5 °F 39.7 °F 30.09 in Calm     83 % 0.00 in
07:30 44.3 °F 39.5 °F 30.09 in Calm     83 % 0.00 in
07:35 44.1 °F 39.6 °F 30.09 in Calm     84 % 0.00 in
07:40 44.2 °F 40.0 °F 30.10 in Calm     85 % 0.00 in
07:45 44.6 °F 40.4 °F 30.10 in Calm     85 % 0.00 in
07:50 44.8 °F 40.3 °F 30.10 in Calm     84 % 0.00 in
07:55 45.4 °F 39.9 °F 30.10 in Calm     81 % 0.00 in
08:00 45.8 °F 40.3 °F 30.10 in Calm     81 % 0.00 in
08:05 46.3 °F 40.8 °F 30.10 in Calm     81 % 0.00 in
08:10 46.9 °F 41.4 °F 30.10 in Calm     81 % 0.00 in
08:15 47.6 °F 42.4 °F 30.10 in Calm     82 % 0.00 in
08:20 48.5 °F 43.3 °F 30.10 in Calm     82 % 0.00 in
08:25 49.7 °F 43.1 °F 30.10 in Calm     78 % 0.00 in
08:30 51.6 °F 44.6 °F 30.10 in Calm     77 % 0.00 in
08:35 53.1 °F 45.4 °F 30.10 in Calm     75 % 0.00 in
08:40 54.3 °F 44.7 °F 30.10 in Calm     70 % 0.00 in
08:42 54.8 °F 44.8 °F 30.10 in Calm     69 % 0.00 in
08:47 55.3 °F 43.3 °F 30.11 in Calm     64 % 0.00 in
08:52 55.7 °F 43.3 °F 30.11 in Calm     63 % 0.00 in
08:53 55.9 °F 43.5 °F 30.11 in Calm     63 % 0.00 in
08:58 56.8 °F 43.5 °F 30.11 in Calm     61 % 0.00 in
09:03 56.2 °F 42.1 °F 30.11 in Calm     59 % 0.00 in
09:04 56.2 °F 42.5 °F 30.11 in Calm   0.1 mph 60 % 0.00 in
09:09 56.3 °F 43.4 °F 30.11 in Calm     62 % 0.00 in
09:14 57.2 °F 43.9 °F 30.11 in Calm     61 % 0.00 in
09:19 58.0 °F 44.2 °F 30.12 in NNW 1.2 mph 1.2 mph 60 % 0.00 in
09:24 58.0 °F 44.2 °F 30.12 in NNW 1.2 mph 1.2 mph 60 % 0.00 in
09:29 57.6 °F 44.2 °F 30.12 in WNW 1.2 mph   61 % 0.00 in
09:34 57.8 °F 45.7 °F 30.12 in Calm     64 % 0.00 in
09:39 58.8 °F 44.0 °F 30.12 in North 1.2 mph   58 % 0.00 in
09:44 59.3 °F 45.0 °F 30.12 in Calm     59 % 0.00 in
09:49 60.1 °F 43.4 °F 30.12 in SSE 1.2 mph   54 % 0.00 in
09:54 60.8 °F 43.1 °F 30.12 in Calm     52 % 0.00 in
09:59 61.4 °F 43.1 °F 30.12 in Calm   0.2 mph 51 % 0.00 in
10:04 61.9 °F 41.4 °F 30.12 in NW 1.2 mph   47 % 0.00 in
10:09 62.0 °F 41.5 °F 30.12 in Calm   0.3 mph 47 % 0.00 in
10:14 62.8 °F 41.7 °F 30.12 in SE 1.2 mph 1.2 mph 46 % 0.00 in
10:19 63.7 °F 41.4 °F 30.12 in SE 1.2 mph   44 % 0.00 in
10:24 64.0 °F 42.2 °F 30.12 in Calm   0.1 mph 45 % 0.00 in
10:30 64.5 °F 40.9 °F 30.12 in North 1.2 mph 1.2 mph 42 % 0.00 in
10:35 64.6 °F 40.4 °F 30.12 in SE 2.3 mph   41 % 0.00 in
10:40 65.1 °F 41.4 °F 30.12 in Calm   0.5 mph 42 % 0.00 in
10:45 65.4 °F 40.4 °F 30.12 in NW 1.2 mph   40 % 0.00 in
10:50 65.8 °F 42.1 °F 30.12 in ESE 3.0 mph 3.0 mph 42 % 0.00 in
10:55 66.2 °F 42.4 °F 30.12 in Calm     42 % 0.00 in
11:00 67.0 °F 42.5 °F 30.12 in NW 1.2 mph 1.2 mph 41 % 0.00 in
11:05 66.9 °F 41.1 °F 30.12 in NNW 1.2 mph 1.2 mph 39 % 0.00 in
11:10 67.3 °F 41.5 °F 30.12 in WSW 1.2 mph   39 % 0.00 in
11:15 67.8 °F 41.3 °F 30.12 in Calm     38 % 0.00 in
11:20 68.2 °F 41.6 °F 30.11 in SSE 2.3 mph 2.3 mph 38 % 0.00 in
11:25 68.5 °F 41.9 °F 30.11 in ESE 2.3 mph 2.3 mph 38 % 0.00 in
11:30 68.3 °F 41.0 °F 30.11 in SSE 3.5 mph 3.5 mph 37 % 0.00 in
11:35 68.7 °F 40.7 °F 30.11 in NNW 1.2 mph 1.2 mph 36 % 0.00 in
11:40 68.7 °F 39.2 °F 30.11 in NW 1.2 mph   34 % 0.00 in
11:45 69.0 °F 40.9 °F 30.11 in SSW 2.3 mph 2.3 mph 36 % 0.00 in
11:50 69.5 °F 41.4 °F 30.11 in SSW 2.3 mph 2.3 mph 36 % 0.00 in
11:55 70.2 °F 42.0 °F 30.11 in NNE 1.2 mph 1.2 mph 36 % 0.00 in
12:00 70.6 °F 41.6 °F 30.11 in WNW 1.2 mph 1.2 mph 35 % 0.00 in
12:05 70.5 °F 40.8 °F 30.11 in NW 2.3 mph 2.3 mph 34 % 0.00 in
12:10 70.7 °F 40.9 °F 30.10 in North 1.2 mph 1.2 mph 34 % 0.00 in
12:15 70.7 °F 41.7 °F 30.10 in ESE 2.0 mph 2.0 mph 35 % 0.00 in
12:20 71.0 °F 40.4 °F 30.10 in North 2.3 mph 2.3 mph 33 % 0.00 in
12:25 70.7 °F 40.2 °F 30.10 in North 1.2 mph 1.2 mph 33 % 0.00 in
12:30 70.9 °F 40.3 °F 30.09 in NNW 2.3 mph 2.3 mph 33 % 0.00 in
12:35 71.0 °F 41.2 °F 30.09 in WNW 1.2 mph 1.2 mph 34 % 0.00 in
12:40 71.5 °F 42.4 °F 30.09 in NW 1.2 mph 1.2 mph 35 % 0.00 in
12:45 72.2 °F 43.0 °F 30.08 in East 3.5 mph 3.5 mph 35 % 0.00 in
12:50 72.6 °F 42.6 °F 30.08 in South 3.5 mph   34 % 0.00 in
12:55 73.1 °F 43.1 °F 30.08 in NNW 2.3 mph 2.3 mph 34 % 0.00 in
13:00 73.1 °F 41.5 °F 30.08 in NNW 2.3 mph 2.3 mph 32 % 0.00 in
13:05 72.8 °F 42.8 °F 30.08 in North 2.3 mph 2.3 mph 34 % 0.00 in
13:10 73.3 °F 43.2 °F 30.07 in NNW 2.3 mph   34 % 0.00 in
13:15 73.5 °F 41.8 °F 30.07 in South 1.2 mph   32 % 0.00 in
13:21 73.1 °F 41.5 °F 30.07 in NNW 2.3 mph 2.3 mph 32 % 0.00 in
13:26 73.1 °F 42.3 °F 30.06 in NE 2.3 mph 2.3 mph 33 % 0.00 in
13:31 73.5 °F 42.6 °F 30.06 in WNW 2.3 mph 2.3 mph 33 % 0.00 in
13:36 73.0 °F 42.2 °F 30.06 in West 3.5 mph 3.5 mph 33 % 0.00 in
13:41 73.0 °F 42.2 °F 30.06 in WSW 2.3 mph 2.3 mph 33 % 0.00 in
13:46 73.3 °F 40.8 °F 30.06 in NW 1.2 mph 1.2 mph 31 % 0.00 in
13:51 73.4 °F 42.5 °F 30.05 in SE 2.3 mph 2.3 mph 33 % 0.00 in
13:56 73.4 °F 42.5 °F 30.05 in West 1.2 mph 1.2 mph 33 % 0.00 in
14:01 73.3 °F 40.8 °F 30.05 in NNW 2.3 mph 2.3 mph 31 % 0.00 in
14:06 73.3 °F 44.0 °F 30.05 in WNW 1.2 mph 1.2 mph 35 % 0.00 in
14:11 73.4 °F 40.9 °F 30.05 in West 1.2 mph 1.2 mph 31 % 0.00 in
14:16 73.8 °F 40.4 °F 30.04 in ENE 1.2 mph 1.2 mph 30 % 0.00 in
14:21 73.7 °F 42.0 °F 30.04 in WNW 2.3 mph 2.3 mph 32 % 0.00 in
14:26 74.1 °F 41.5 °F 30.04 in North 1.2 mph 1.2 mph 31 % 0.00 in
14:31 74.4 °F 42.6 °F 30.04 in Calm     32 % 0.00 in
14:36 75.0 °F 43.1 °F 30.03 in WNW 1.2 mph   32 % 0.00 in
14:41 75.2 °F 41.6 °F 30.03 in NW 2.3 mph 2.3 mph 30 % 0.00 in
14:46 74.5 °F 41.0 °F 30.03 in NW 2.3 mph 2.3 mph 30 % 0.00 in
14:51 74.0 °F 40.6 °F 30.03 in WNW 2.3 mph 2.3 mph 30 % 0.00 in
14:56 74.0 °F 40.6 °F 30.03 in NW 2.3 mph 2.3 mph 30 % 0.00 in
15:01 73.9 °F 41.3 °F 30.03 in WNW 1.2 mph   31 % 0.00 in
15:06 74.0 °F 41.4 °F 30.03 in NW 1.0 mph 1.0 mph 31 % 0.00 in
15:11 74.6 °F 42.0 °F 30.03 in Calm     31 % 0.00 in
15:16 74.6 °F 40.2 °F 30.03 in NW 1.2 mph 1.2 mph 29 % 0.00 in
15:21 74.5 °F 41.0 °F 30.02 in Calm   0.2 mph 30 % 0.00 in
15:26 74.6 °F 42.0 °F 30.02 in NW 3.0 mph 3.0 mph 31 % 0.00 in
15:31 74.2 °F 39.9 °F 30.02 in WNW 3.5 mph 3.5 mph 29 % 0.00 in
15:36 73.9 °F 39.6 °F 30.02 in Calm     29 % 0.00 in
15:41 74.0 °F 38.8 °F 30.02 in Calm     28 % 0.00 in
15:46 74.2 °F 39.9 °F 30.02 in NNE 1.2 mph 1.2 mph 29 % 0.00 in
15:51 74.5 °F 41.0 °F 30.02 in South 1.2 mph 1.2 mph 30 % 0.00 in
15:56 74.7 °F 42.9 °F 30.02 in Calm     32 % 0.00 in
16:01 74.6 °F 42.0 °F 30.02 in West 1.2 mph   31 % 0.00 in
16:06 74.6 °F 41.1 °F 30.02 in WNW 1.2 mph   30 % 0.00 in
16:11 74.5 °F 41.9 °F 30.02 in East 1.2 mph 1.2 mph 31 % 0.00 in
16:16 74.2 °F 42.4 °F 30.02 in North 1.2 mph 1.2 mph 32 % 0.00 in
16:21 74.0 °F 42.3 °F 30.02 in WSW 1.2 mph   32 % 0.00 in
16:26 73.9 °F 41.3 °F 30.02 in Calm     31 % 0.00 in
16:31 73.6 °F 41.9 °F 30.02 in NW 1.0 mph 1.0 mph 32 % 0.00 in
16:36 73.4 °F 40.1 °F 30.01 in NNW 1.2 mph   30 % 0.00 in
16:41 73.1 °F 41.5 °F 30.02 in Calm   0.3 mph 32 % 0.00 in
16:46 72.9 °F 40.5 °F 30.02 in Calm     31 % 0.00 in
16:51 72.8 °F 40.4 °F 30.01 in Calm     31 % 0.00 in
16:56 72.8 °F 41.2 °F 30.01 in SE 2.0 mph 2.0 mph 32 % 0.00 in
17:01 72.6 °F 41.0 °F 30.01 in Calm     32 % 0.00 in
17:06 72.4 °F 42.4 °F 30.01 in Calm     34 % 0.00 in
17:11 72.2 °F 41.5 °F 30.01 in Calm     33 % 0.00 in
17:16 72.1 °F 41.4 °F 30.01 in Calm     33 % 0.00 in
17:21 71.9 °F 42.8 °F 30.01 in Calm     35 % 0.00 in
17:26 71.6 °F 42.5 °F 30.01 in Calm     35 % 0.00 in
17:32 71.3 °F 43.0 °F 30.01 in Calm     36 % 0.00 in
17:37 71.0 °F 44.1 °F 30.01 in Calm     38 % 0.00 in
17:42 70.7 °F 43.8 °F 30.01 in Calm     38 % 0.00 in
17:47 70.2 °F 44.1 °F 30.01 in Calm     39 % 0.00 in
17:52 69.6 °F 44.2 °F 30.01 in Calm     40 % 0.00 in
17:57 69.0 °F 44.9 °F 30.01 in Calm     42 % 0.00 in
18:02 68.4 °F 44.4 °F 30.01 in Calm     42 % 0.00 in
18:07 67.9 °F 45.2 °F 30.01 in Calm     44 % 0.00 in
18:12 67.3 °F 46.4 °F 30.01 in Calm     47 % 0.00 in
18:16 66.6 °F 46.3 °F 30.01 in Calm     48 % 0.00 in
18:22 66.0 °F 46.8 °F 30.01 in Calm     50 % 0.00 in
18:27 65.3 °F 46.7 °F 30.01 in Calm     51 % 0.00 in
18:31 64.6 °F 47.1 °F 30.01 in Calm     53 % 0.00 in
18:37 64.0 °F 47.0 °F 30.01 in Calm     54 % 0.00 in
18:42 63.5 °F 46.1 °F 30.01 in Calm     53 % 0.00 in
18:47 63.0 °F 46.1 °F 30.01 in Calm     54 % 0.00 in
18:52 62.6 °F 47.1 °F 30.02 in Calm     57 % 0.00 in
18:57 62.4 °F 46.5 °F 30.01 in Calm     56 % 0.00 in
19:02 62.0 °F 46.6 °F 30.02 in Calm     57 % 0.00 in
19:07 61.7 °F 47.2 °F 30.02 in Calm     59 % 0.00 in
19:12 61.3 °F 46.4 °F 30.02 in Calm     58 % 0.00 in
19:17 61.0 °F 46.6 °F 30.02 in Calm     59 % 0.00 in
19:22 60.6 °F 46.6 °F 30.02 in Calm     60 % 0.00 in
19:27 60.6 °F 47.1 °F 30.03 in Calm     61 % 0.00 in
19:32 60.3 °F 46.4 °F 30.03 in Calm     60 % 0.00 in
19:37 59.9 °F 46.4 °F 30.03 in Calm     61 % 0.00 in
19:42 59.8 °F 46.7 °F 30.03 in Calm     62 % 0.00 in
19:47 59.7 °F 46.7 °F 30.03 in Calm     62 % 0.00 in
19:52 59.5 °F 46.9 °F 30.03 in Calm     63 % 0.00 in
19:57 59.0 °F 47.2 °F 30.03 in Calm     65 % 0.00 in
20:02 58.6 °F 47.3 °F 30.04 in Calm     66 % 0.00 in
20:07 58.2 °F 46.9 °F 30.04 in Calm     66 % 0.00 in
20:12 58.0 °F 45.9 °F 30.04 in Calm     64 % 0.00 in
20:17 57.8 °F 46.5 °F 30.04 in Calm     66 % 0.00 in
20:22 57.6 °F 45.9 °F 30.04 in Calm     65 % 0.00 in
20:27 57.4 °F 45.7 °F 30.04 in Calm     65 % 0.00 in
20:32 57.3 °F 45.6 °F 30.04 in Calm     65 % 0.00 in
20:37 57.2 °F 45.1 °F 30.04 in Calm     64 % 0.00 in
20:42 57.1 °F 45.8 °F 30.04 in Calm     66 % 0.00 in
20:47 56.8 °F 46.7 °F 30.05 in Calm     69 % 0.00 in
20:52 56.7 °F 47.0 °F 30.05 in Calm     70 % 0.00 in
20:57 56.4 °F 46.4 °F 30.05 in Calm     69 % 0.00 in
21:02 56.2 °F 45.8 °F 30.05 in Calm     68 % 0.00 in
21:07 56.0 °F 46.0 °F 30.05 in Calm     69 % 0.00 in
21:08 56.0 °F 46.0 °F 30.05 in Calm     69 % 0.00 in
21:13 55.7 °F 46.1 °F 30.05 in Calm     70 % 0.00 in
21:18 55.5 °F 46.2 °F 30.05 in Calm     71 % 0.00 in
21:23 55.2 °F 46.7 °F 30.05 in Calm     73 % 0.00 in
21:28 54.9 °F 46.4 °F 30.05 in Calm     73 % 0.00 in
21:33 54.5 °F 46.0 °F 30.06 in Calm     73 % 0.00 in
21:38 54.2 °F 46.1 °F 30.05 in Calm     74 % 0.00 in
21:43 54.0 °F 45.9 °F 30.06 in Calm     74 % 0.00 in
21:48 53.9 °F 46.2 °F 30.06 in Calm     75 % 0.00 in
21:53 53.8 °F 46.4 °F 30.06 in Calm     76 % 0.00 in
21:55 53.8 °F 46.4 °F 30.06 in Calm     76 % 0.00 in
22:00 53.8 °F 46.4 °F 30.06 in Calm     76 % 0.00 in
22:05 53.6 °F 46.6 °F 30.07 in Calm     77 % 0.00 in
22:10 53.4 °F 46.4 °F 30.07 in Calm     77 % 0.00 in
22:15 53.2 °F 46.5 °F 30.07 in Calm     78 % 0.00 in
22:20 52.8 °F 46.1 °F 30.07 in Calm     78 % 0.00 in
22:25 52.6 °F 46.3 °F 30.07 in Calm     79 % 0.00 in
22:30 52.6 °F 46.3 °F 30.07 in Calm     79 % 0.00 in
22:35 52.9 °F 46.2 °F 30.07 in Calm     78 % 0.00 in
22:40 53.2 °F 46.2 °F 30.07 in Calm     77 % 0.00 in
22:46 53.4 °F 46.0 °F 30.07 in Calm     76 % 0.00 in
22:51 53.4 °F 45.3 °F 30.07 in Calm     74 % 0.00 in
22:56 53.2 °F 45.5 °F 30.07 in Calm     75 % 0.00 in
23:01 53.0 °F 45.3 °F 30.07 in Calm     75 % 0.00 in
23:06 52.7 °F 44.6 °F 30.07 in Calm     74 % 0.00 in
23:11 52.9 °F 44.5 °F 30.07 in Calm     73 % 0.00 in
23:16 52.9 °F 44.5 °F 30.07 in Calm     73 % 0.00 in
23:21 52.7 °F 43.9 °F 30.06 in Calm     72 % 0.00 in
23:26 52.6 °F 44.2 °F 30.06 in Calm     73 % 0.00 in
23:31 52.4 °F 45.1 °F 30.07 in Calm     76 % 0.00 in
23:36 52.1 °F 44.8 °F 30.06 in Calm     76 % 0.00 in
23:41 51.7 °F 44.7 °F 30.06 in Calm     77 % 0.00 in
23:46 51.3 °F 44.3 °F 30.06 in Calm     77 % 0.00 in
23:51 51.0 °F 44.4 °F 30.06 in Calm     78 % 0.00 in
23:56 50.6 °F 44.0 °F 30.06 in Calm     78 % 0.00 in
Park Place, Exeter, Tulare County, California, USA
Compliments of Weather Underground - 2.75 mb